sensor_id;sensor_type;location;lat;lon;timestamp;temperature;humidity
22108;DHT22;11220;48.812;9.128;2023-07-29T04:23:53;21.30;98.40
22108;DHT22;11220;48.812;9.128;2023-07-29T04:26:18;21.30;98.40
22108;DHT22;11220;48.812;9.128;2023-07-29T04:28:44;21.30;98.40
22108;DHT22;11220;48.812;9.128;2023-07-29T04:31:09;21.20;98.40
22108;DHT22;11220;48.812;9.128;2023-07-29T04:33:35;21.30;98.40
22108;DHT22;11220;48.812;9.128;2023-07-29T06:01:26;21.40;98.40
22108;DHT22;11220;48.812;9.128;2023-07-29T06:03:51;21.40;98.40
22108;DHT22;11220;48.812;9.128;2023-07-29T06:06:17;21.40;98.40
22108;DHT22;11220;48.812;9.128;2023-07-29T06:08:42;21.50;98.50
22108;DHT22;11220;48.812;9.128;2023-07-29T06:11:08;21.40;98.50
22108;DHT22;11220;48.812;9.128;2023-07-29T06:13:33;21.40;98.50
22108;DHT22;11220;48.812;9.128;2023-07-29T06:15:59;21.40;98.60
22108;DHT22;11220;48.812;9.128;2023-07-29T06:18:24;21.40;98.70
22108;DHT22;11220;48.812;9.128;2023-07-29T06:20:50;21.40;98.70
22108;DHT22;11220;48.812;9.128;2023-07-29T06:23:16;21.40;98.90
22108;DHT22;11220;48.812;9.128;2023-07-29T06:25:42;21.40;98.90
22108;DHT22;11220;48.812;9.128;2023-07-29T06:28:09;21.40;99.00
22108;DHT22;11220;48.812;9.128;2023-07-29T06:30:35;21.50;99.10
22108;DHT22;11220;48.812;9.128;2023-07-29T06:33:00;21.40;99.20
22108;DHT22;11220;48.812;9.128;2023-07-29T06:35:26;21.50;99.30
22108;DHT22;11220;48.812;9.128;2023-07-29T06:37:51;21.40;99.30
22108;DHT22;11220;48.812;9.128;2023-07-29T06:40:17;21.50;99.40
22108;DHT22;11220;48.812;9.128;2023-07-29T06:42:42;21.50;99.50
22108;DHT22;11220;48.812;9.128;2023-07-29T06:45:08;21.50;99.50
22108;DHT22;11220;48.812;9.128;2023-07-29T06:47:34;21.50;99.60
22108;DHT22;11220;48.812;9.128;2023-07-29T06:49:59;21.40;99.60
22108;DHT22;11220;48.812;9.128;2023-07-29T06:52:25;21.50;99.60
22108;DHT22;11220;48.812;9.128;2023-07-29T06:54:51;21.40;99.70
22108;DHT22;11220;48.812;9.128;2023-07-29T06:57:16;21.40;99.70
22108;DHT22;11220;48.812;9.128;2023-07-29T06:59:42;21.40;99.70
22108;DHT22;11220;48.812;9.128;2023-07-29T07:02:07;21.50;99.80
22108;DHT22;11220;48.812;9.128;2023-07-29T07:04:33;21.40;99.80
22108;DHT22;11220;48.812;9.128;2023-07-29T07:07:15;21.40;99.80
22108;DHT22;11220;48.812;9.128;2023-07-29T07:09:40;21.40;99.90
22108;DHT22;11220;48.812;9.128;2023-07-29T07:12:06;21.50;99.90
22108;DHT22;11220;48.812;9.128;2023-07-29T07:14:32;21.40;99.90
22108;DHT22;11220;48.812;9.128;2023-07-29T07:16:57;21.50;99.90
22108;DHT22;11220;48.812;9.128;2023-07-29T07:19:58;21.50;99.90
22108;DHT22;11220;48.812;9.128;2023-07-29T07:22:23;21.50;99.90
22108;DHT22;11220;48.812;9.128;2023-07-29T07:24:49;21.50;99.90
22108;DHT22;11220;48.812;9.128;2023-07-29T07:27:14;21.40;99.90
22108;DHT22;11220;48.812;9.128;2023-07-29T07:29:40;21.50;99.90
22108;DHT22;11220;48.812;9.128;2023-07-29T07:32:06;21.70;99.90
22108;DHT22;11220;48.812;9.128;2023-07-29T07:34:31;21.50;99.90
22108;DHT22;11220;48.812;9.128;2023-07-29T07:36:58;21.50;99.90
22108;DHT22;11220;48.812;9.128;2023-07-29T07:39:24;21.50;99.90
22108;DHT22;11220;48.812;9.128;2023-07-29T07:41:49;21.60;99.90
22108;DHT22;11220;48.812;9.128;2023-07-29T07:44:15;21.50;99.90
22108;DHT22;11220;48.812;9.128;2023-07-29T07:46:43;21.50;99.90
22108;DHT22;11220;48.812;9.128;2023-07-29T07:49:08;21.50;99.90
22108;DHT22;11220;48.812;9.128;2023-07-29T07:51:34;21.50;99.90
22108;DHT22;11220;48.812;9.128;2023-07-29T07:53:59;21.50;99.90
22108;DHT22;11220;48.812;9.128;2023-07-29T07:56:25;21.60;99.90
22108;DHT22;11220;48.812;9.128;2023-07-29T07:58:50;21.80;99.90
22108;DHT22;11220;48.812;9.128;2023-07-29T08:01:16;21.60;99.90
22108;DHT22;11220;48.812;9.128;2023-07-29T08:03:41;21.50;99.90
22108;DHT22;11220;48.812;9.128;2023-07-29T08:06:07;21.60;99.90
22108;DHT22;11220;48.812;9.128;2023-07-29T08:08:32;21.60;99.90
22108;DHT22;11220;48.812;9.128;2023-07-29T08:10:58;21.60;99.80
22108;DHT22;11220;48.812;9.128;2023-07-29T08:13:24;21.60;99.80
22108;DHT22;11220;48.812;9.128;2023-07-29T08:15:52;21.60;99.80
22108;DHT22;11220;48.812;9.128;2023-07-29T08:18:18;21.60;99.70
22108;DHT22;11220;48.812;9.128;2023-07-29T08:20:54;21.60;99.70
22108;DHT22;11220;48.812;9.128;2023-07-29T08:23:33;21.70;99.70
22108;DHT22;11220;48.812;9.128;2023-07-29T08:26:00;21.90;99.80
22108;DHT22;11220;48.812;9.128;2023-07-29T08:28:31;21.70;99.70
22108;DHT22;11220;48.812;9.128;2023-07-29T08:30:57;21.70;99.70
22108;DHT22;11220;48.812;9.128;2023-07-29T08:33:23;21.70;99.70
22108;DHT22;11220;48.812;9.128;2023-07-29T08:35:48;21.70;99.80
22108;DHT22;11220;48.812;9.128;2023-07-29T08:38:14;21.80;99.90
22108;DHT22;11220;48.812;9.128;2023-07-29T08:41:06;21.70;99.90
22108;DHT22;11220;48.812;9.128;2023-07-29T08:43:38;21.70;99.90
22108;DHT22;11220;48.812;9.128;2023-07-29T08:46:04;21.80;99.90
22108;DHT22;11220;48.812;9.128;2023-07-29T08:48:42;21.80;99.90
22108;DHT22;11220;48.812;9.128;2023-07-29T08:51:11;21.80;99.90
22108;DHT22;11220;48.812;9.128;2023-07-29T08:53:38;21.90;99.90
22108;DHT22;11220;48.812;9.128;2023-07-29T08:56:04;22.00;99.90
22108;DHT22;11220;48.812;9.128;2023-07-29T08:58:31;22.00;99.90
22108;DHT22;11220;48.812;9.128;2023-07-29T09:00:57;21.90;99.90
22108;DHT22;11220;48.812;9.128;2023-07-29T09:03:23;21.90;99.90
22108;DHT22;11220;48.812;9.128;2023-07-29T09:05:48;21.90;99.90
22108;DHT22;11220;48.812;9.128;2023-07-29T09:08:14;21.90;99.90
22108;DHT22;11220;48.812;9.128;2023-07-29T09:10:40;22.00;99.90
22108;DHT22;11220;48.812;9.128;2023-07-29T09:13:06;21.90;99.90
22108;DHT22;11220;48.812;9.128;2023-07-29T09:15:34;21.90;99.90
22108;DHT22;11220;48.812;9.128;2023-07-29T09:18:10;22.00;99.90
22108;DHT22;11220;48.812;9.128;2023-07-29T09:20:39;22.00;99.90
22108;DHT22;11220;48.812;9.128;2023-07-29T09:23:07;22.20;99.90
22108;DHT22;11220;48.812;9.128;2023-07-29T09:25:33;22.10;99.90
22108;DHT22;11220;48.812;9.128;2023-07-29T09:28:00;22.10;99.90
22108;DHT22;11220;48.812;9.128;2023-07-29T09:30:26;22.10;99.90
22108;DHT22;11220;48.812;9.128;2023-07-29T09:32:56;22.10;99.90
22108;DHT22;11220;48.812;9.128;2023-07-29T09:35:22;22.10;99.90
22108;DHT22;11220;48.812;9.128;2023-07-29T09:37:48;22.60;99.90
22108;DHT22;11220;48.812;9.128;2023-07-29T09:40:15;22.20;99.90
22108;DHT22;11220;48.812;9.128;2023-07-29T09:45:26;22.20;99.90
22108;DHT22;11220;48.812;9.128;2023-07-29T09:47:53;22.20;99.90
22108;DHT22;11220;48.812;9.128;2023-07-29T09:50:19;22.20;99.90
22108;DHT22;11220;48.812;9.128;2023-07-29T09:52:48;22.20;99.90
22108;DHT22;11220;48.812;9.128;2023-07-29T09:55:18;22.30;99.90
22108;DHT22;11220;48.812;9.128;2023-07-29T09:57:44;22.30;99.90
22108;DHT22;11220;48.812;9.128;2023-07-29T10:00:11;22.30;99.90
22108;DHT22;11220;48.812;9.128;2023-07-29T10:02:42;22.30;99.90
22108;DHT22;11220;48.812;9.128;2023-07-29T10:05:08;22.30;99.90
22108;DHT22;11220;48.812;9.128;2023-07-29T10:07:36;22.30;99.90
22108;DHT22;11220;48.812;9.128;2023-07-29T10:10:04;22.90;99.90
22108;DHT22;11220;48.812;9.128;2023-07-29T10:12:34;22.40;99.90
22108;DHT22;11220;48.812;9.128;2023-07-29T10:15:04;22.40;99.90
22108;DHT22;11220;48.812;9.128;2023-07-29T10:17:34;22.40;99.90
22108;DHT22;11220;48.812;9.128;2023-07-29T10:20:00;22.40;99.90
22108;DHT22;11220;48.812;9.128;2023-07-29T10:22:29;22.40;99.90
22108;DHT22;11220;48.812;9.128;2023-07-29T10:25:02;22.40;99.90
22108;DHT22;11220;48.812;9.128;2023-07-29T10:27:31;22.30;99.90
22108;DHT22;11220;48.812;9.128;2023-07-29T10:29:57;22.40;99.90
22108;DHT22;11220;48.812;9.128;2023-07-29T10:32:25;22.40;99.90
22108;DHT22;11220;48.812;9.128;2023-07-29T10:34:52;22.40;99.90
22108;DHT22;11220;48.812;9.128;2023-07-29T10:37:18;22.40;99.90
22108;DHT22;11220;48.812;9.128;2023-07-29T10:39:53;22.40;99.90
22108;DHT22;11220;48.812;9.128;2023-07-29T10:42:19;22.40;99.90
22108;DHT22;11220;48.812;9.128;2023-07-29T10:44:50;22.50;99.90
22108;DHT22;11220;48.812;9.128;2023-07-29T10:47:27;22.40;99.90
22108;DHT22;11220;48.812;9.128;2023-07-29T10:49:57;22.40;99.90
22108;DHT22;11220;48.812;9.128;2023-07-29T10:55:02;22.40;99.90
22108;DHT22;11220;48.812;9.128;2023-07-29T10:57:34;22.40;99.90
22108;DHT22;11220;48.812;9.128;2023-07-29T11:00:00;22.40;99.90
22108;DHT22;11220;48.812;9.128;2023-07-29T11:02:34;22.50;99.90
22108;DHT22;11220;48.812;9.128;2023-07-29T11:05:15;22.50;99.90
22108;DHT22;11220;48.812;9.128;2023-07-29T11:07:45;22.90;99.90
22108;DHT22;11220;48.812;9.128;2023-07-29T11:10:12;22.50;99.90
22108;DHT22;11220;48.812;9.128;2023-07-29T11:12:48;23.10;99.90
22108;DHT22;11220;48.812;9.128;2023-07-29T11:15:26;22.50;99.90
22108;DHT22;11220;48.812;9.128;2023-07-29T11:17:54;22.60;99.90
22108;DHT22;11220;48.812;9.128;2023-07-29T11:20:25;22.60;99.80
22108;DHT22;11220;48.812;9.128;2023-07-29T11:22:52;22.60;99.80
22108;DHT22;11220;48.812;9.128;2023-07-29T11:25:18;22.80;99.90
22108;DHT22;11220;48.812;9.128;2023-07-29T11:27:45;22.60;99.80
22108;DHT22;11220;48.812;9.128;2023-07-29T11:30:13;22.80;99.90
22108;DHT22;11220;48.812;9.128;2023-07-29T11:32:40;22.50;99.80
22108;DHT22;11220;48.812;9.128;2023-07-29T11:35:13;22.60;99.90
22108;DHT22;11220;48.812;9.128;2023-07-29T11:37:41;22.60;99.90
22108;DHT22;11220;48.812;9.128;2023-07-29T11:40:07;22.60;99.90
22108;DHT22;11220;48.812;9.128;2023-07-29T11:42:36;22.70;99.90
22108;DHT22;11220;48.812;9.128;2023-07-29T11:45:03;22.70;99.90
22108;DHT22;11220;48.812;9.128;2023-07-29T11:47:31;22.70;99.90
22108;DHT22;11220;48.812;9.128;2023-07-29T11:50:00;23.00;99.90
22108;DHT22;11220;48.812;9.128;2023-07-29T11:52:27;22.70;99.90
22108;DHT22;11220;48.812;9.128;2023-07-29T11:54:53;22.60;99.90
22108;DHT22;11220;48.812;9.128;2023-07-29T11:57:19;22.80;99.90
22108;DHT22;11220;48.812;9.128;2023-07-29T11:59:46;22.80;99.80
22108;DHT22;11220;48.812;9.128;2023-07-29T12:02:15;22.90;99.80
22108;DHT22;11220;48.812;9.128;2023-07-29T12:04:41;22.80;99.70
22108;DHT22;11220;48.812;9.128;2023-07-29T12:07:08;22.90;99.60
22108;DHT22;11220;48.812;9.128;2023-07-29T12:09:37;22.80;99.50
22108;DHT22;11220;48.812;9.128;2023-07-29T12:12:06;22.90;99.40
22108;DHT22;11220;48.812;9.128;2023-07-29T12:14:33;22.90;99.40
22108;DHT22;11220;48.812;9.128;2023-07-29T12:17:04;23.00;99.20
22108;DHT22;11220;48.812;9.128;2023-07-29T12:19:34;22.90;99.10
22108;DHT22;11220;48.812;9.128;2023-07-29T12:22:02;22.90;99.00
22108;DHT22;11220;48.812;9.128;2023-07-29T12:24:30;23.00;99.00
22108;DHT22;11220;48.812;9.128;2023-07-29T12:26:55;23.00;98.90
22108;DHT22;11220;48.812;9.128;2023-07-29T12:29:21;23.10;98.90
22108;DHT22;11220;48.812;9.128;2023-07-29T12:31:47;23.10;98.80
22108;DHT22;11220;48.812;9.128;2023-07-29T12:34:19;22.90;98.70
22108;DHT22;11220;48.812;9.128;2023-07-29T12:36:49;23.10;98.70
22108;DHT22;11220;48.812;9.128;2023-07-29T12:39:18;23.10;98.60
22108;DHT22;11220;48.812;9.128;2023-07-29T12:41:44;23.10;98.50
22108;DHT22;11220;48.812;9.128;2023-07-29T12:44:10;23.30;98.50
22108;DHT22;11220;48.812;9.128;2023-07-29T12:46:35;23.10;98.40
22108;DHT22;11220;48.812;9.128;2023-07-29T12:49:01;23.40;98.40
22108;DHT22;11220;48.812;9.128;2023-07-29T12:51:26;23.20;98.30
22108;DHT22;11220;48.812;9.128;2023-07-29T12:53:53;23.20;98.30
22108;DHT22;11220;48.812;9.128;2023-07-29T12:56:19;23.30;98.20
22108;DHT22;11220;48.812;9.128;2023-07-29T12:58:45;23.30;98.20
22108;DHT22;11220;48.812;9.128;2023-07-29T13:01:10;23.40;98.10
22108;DHT22;11220;48.812;9.128;2023-07-29T13:03:42;23.40;98.10
22108;DHT22;11220;48.812;9.128;2023-07-29T13:06:07;23.30;97.90
22108;DHT22;11220;48.812;9.128;2023-07-29T13:08:33;23.20;97.90
22108;DHT22;11220;48.812;9.128;2023-07-29T13:10:58;23.40;97.90
22108;DHT22;11220;48.812;9.128;2023-07-29T13:13:24;23.60;97.90
22108;DHT22;11220;48.812;9.128;2023-07-29T13:15:49;23.40;97.80
22108;DHT22;11220;48.812;9.128;2023-07-29T13:18:15;23.50;97.80
22108;DHT22;11220;48.812;9.128;2023-07-29T13:20:40;23.50;97.70
22108;DHT22;11220;48.812;9.128;2023-07-29T13:23:06;23.60;97.60
22108;DHT22;11220;48.812;9.128;2023-07-29T13:25:31;23.60;97.60
22108;DHT22;11220;48.812;9.128;2023-07-29T13:27:57;23.60;97.50
22108;DHT22;11220;48.812;9.128;2023-07-29T13:30:22;23.70;97.40
22108;DHT22;11220;48.812;9.128;2023-07-29T13:32:48;23.70;97.30
22108;DHT22;11220;48.812;9.128;2023-07-29T13:35:13;23.80;97.20
22108;DHT22;11220;48.812;9.128;2023-07-29T13:37:39;23.70;97.20
22108;DHT22;11220;48.812;9.128;2023-07-29T13:40:05;23.80;97.30
22108;DHT22;11220;48.812;9.128;2023-07-29T13:42:31;23.70;97.40
22108;DHT22;11220;48.812;9.128;2023-07-29T13:44:56;23.70;97.40
22108;DHT22;11220;48.812;9.128;2023-07-29T13:47:22;23.60;97.40
22108;DHT22;11220;48.812;9.128;2023-07-29T13:49:47;23.80;97.40
22108;DHT22;11220;48.812;9.128;2023-07-29T13:52:14;23.70;97.30
22108;DHT22;11220;48.812;9.128;2023-07-29T13:54:39;23.60;97.30
22108;DHT22;11220;48.812;9.128;2023-07-29T13:57:05;23.60;97.20
22108;DHT22;11220;48.812;9.128;2023-07-29T13:59:32;23.60;97.20
22108;DHT22;11220;48.812;9.128;2023-07-29T14:01:57;23.80;97.20
22108;DHT22;11220;48.812;9.128;2023-07-29T14:04:23;23.60;97.10
22108;DHT22;11220;48.812;9.128;2023-07-29T14:06:49;23.60;97.00
22108;DHT22;11220;48.812;9.128;2023-07-29T14:09:14;23.90;97.00
22108;DHT22;11220;48.812;9.128;2023-07-29T14:11:40;23.70;96.80
22108;DHT22;11220;48.812;9.128;2023-07-29T14:14:05;23.70;96.70
22108;DHT22;11220;48.812;9.128;2023-07-29T14:16:31;23.80;96.60
22108;DHT22;11220;48.812;9.128;2023-07-29T14:18:56;23.90;96.50
22108;DHT22;11220;48.812;9.128;2023-07-29T14:21:22;23.90;96.40
22108;DHT22;11220;48.812;9.128;2023-07-29T14:23:47;24.00;96.20
22108;DHT22;11220;48.812;9.128;2023-07-29T14:26:13;24.10;96.20
22108;DHT22;11220;48.812;9.128;2023-07-29T14:28:38;24.10;96.00
22108;DHT22;11220;48.812;9.128;2023-07-29T14:31:04;24.00;96.00
22108;DHT22;11220;48.812;9.128;2023-07-29T14:33:29;24.20;96.00
22108;DHT22;11220;48.812;9.128;2023-07-29T14:35:55;24.10;95.90
22108;DHT22;11220;48.812;9.128;2023-07-29T14:38:20;24.20;96.00
22108;DHT22;11220;48.812;9.128;2023-07-29T14:40:48;24.10;96.00
22108;DHT22;11220;48.812;9.128;2023-07-29T14:43:13;24.10;96.10
22108;DHT22;11220;48.812;9.128;2023-07-29T14:45:39;24.00;96.10
22108;DHT22;11220;48.812;9.128;2023-07-29T14:48:04;24.00;96.20
22108;DHT22;11220;48.812;9.128;2023-07-29T14:50:30;24.00;96.20
22108;DHT22;11220;48.812;9.128;2023-07-29T14:52:55;24.00;96.20
22108;DHT22;11220;48.812;9.128;2023-07-29T14:55:21;24.30;96.30
22108;DHT22;11220;48.812;9.128;2023-07-29T14:57:46;24.00;96.10
22108;DHT22;11220;48.812;9.128;2023-07-29T15:00:12;24.00;96.10
22108;DHT22;11220;48.812;9.128;2023-07-29T15:02:39;23.90;96.10
22108;DHT22;11220;48.812;9.128;2023-07-29T15:05:05;24.00;96.10
22108;DHT22;11220;48.812;9.128;2023-07-29T15:07:31;24.00;96.20
22108;DHT22;11220;48.812;9.128;2023-07-29T15:09:56;24.00;96.20
22108;DHT22;11220;48.812;9.128;2023-07-29T15:12:22;23.90;96.20
22108;DHT22;11220;48.812;9.128;2023-07-29T15:14:47;23.90;96.10
22108;DHT22;11220;48.812;9.128;2023-07-29T15:17:13;24.00;96.00
22108;DHT22;11220;48.812;9.128;2023-07-29T15:19:39;24.10;95.80
22108;DHT22;11220;48.812;9.128;2023-07-29T15:22:04;24.10;95.70
22108;DHT22;11220;48.812;9.128;2023-07-29T15:24:30;24.10;95.50
22108;DHT22;11220;48.812;9.128;2023-07-29T15:26:56;24.20;95.40
22108;DHT22;11220;48.812;9.128;2023-07-29T15:29:21;24.20;95.30
22108;DHT22;11220;48.812;9.128;2023-07-29T15:31:47;24.20;95.20
22108;DHT22;11220;48.812;9.128;2023-07-29T15:34:13;24.30;95.20
22108;DHT22;11220;48.812;9.128;2023-07-29T15:36:38;24.20;95.10
22108;DHT22;11220;48.812;9.128;2023-07-29T15:39:04;24.30;95.00
22108;DHT22;11220;48.812;9.128;2023-07-29T15:41:32;24.30;95.00
22108;DHT22;11220;48.812;9.128;2023-07-29T15:44:01;24.30;94.90
22108;DHT22;11220;48.812;9.128;2023-07-29T15:46:27;24.30;94.90
22108;DHT22;11220;48.812;9.128;2023-07-29T15:48:52;24.20;94.90
22108;DHT22;11220;48.812;9.128;2023-07-29T15:51:18;24.20;95.00
22108;DHT22;11220;48.812;9.128;2023-07-29T15:53:43;24.20;95.10
22108;DHT22;11220;48.812;9.128;2023-07-29T15:56:09;24.20;95.20
22108;DHT22;11220;48.812;9.128;2023-07-29T15:58:34;24.30;95.30
22108;DHT22;11220;48.812;9.128;2023-07-29T16:01:00;24.00;95.30
22108;DHT22;11220;48.812;9.128;2023-07-29T16:03:26;24.00;95.30
22108;DHT22;11220;48.812;9.128;2023-07-29T16:05:51;24.00;95.30
22108;DHT22;11220;48.812;9.128;2023-07-29T16:08:17;23.90;95.20
22108;DHT22;11220;48.812;9.128;2023-07-29T16:10:42;24.00;95.20
22108;DHT22;11220;48.812;9.128;2023-07-29T16:13:08;24.00;95.20
22108;DHT22;11220;48.812;9.128;2023-07-29T16:15:33;24.00;95.10
22108;DHT22;11220;48.812;9.128;2023-07-29T16:17:59;24.00;95.10
22108;DHT22;11220;48.812;9.128;2023-07-29T16:20:25;24.20;94.90
22108;DHT22;11220;48.812;9.128;2023-07-29T16:22:52;24.30;94.50
22108;DHT22;11220;48.812;9.128;2023-07-29T16:25:17;24.40;94.30
22108;DHT22;11220;48.812;9.128;2023-07-29T16:27:43;24.50;94.20
22108;DHT22;11220;48.812;9.128;2023-07-29T16:30:09;24.60;94.10
22108;DHT22;11220;48.812;9.128;2023-07-29T16:32:34;24.50;94.00
22108;DHT22;11220;48.812;9.128;2023-07-29T16:35:00;24.60;93.80
22108;DHT22;11220;48.812;9.128;2023-07-29T16:37:26;24.70;93.70
22108;DHT22;11220;48.812;9.128;2023-07-29T16:39:51;24.70;93.50
22108;DHT22;11220;48.812;9.128;2023-07-29T16:42:17;24.80;93.40
22108;DHT22;11220;48.812;9.128;2023-07-29T16:44:42;24.80;93.20
22108;DHT22;11220;48.812;9.128;2023-07-29T16:47:08;24.80;93.10
22108;DHT22;11220;48.812;9.128;2023-07-29T16:49:35;25.00;93.10
22108;DHT22;11220;48.812;9.128;2023-07-29T16:52:00;24.90;93.40
22108;DHT22;11220;48.812;9.128;2023-07-29T16:54:26;24.90;93.00
22108;DHT22;11220;48.812;9.128;2023-07-29T16:56:51;24.90;93.00
22108;DHT22;11220;48.812;9.128;2023-07-29T16:59:17;24.80;93.00
22108;DHT22;11220;48.812;9.128;2023-07-29T17:01:42;24.70;93.20
22108;DHT22;11220;48.812;9.128;2023-07-29T17:04:08;24.70;93.40
22108;DHT22;11220;48.812;9.128;2023-07-29T17:06:34;24.70;93.60
22108;DHT22;11220;48.812;9.128;2023-07-29T17:08:59;24.80;93.90
22108;DHT22;11220;48.812;9.128;2023-07-29T17:11:25;24.40;94.00
22108;DHT22;11220;48.812;9.128;2023-07-29T17:13:50;24.40;94.20
22108;DHT22;11220;48.812;9.128;2023-07-29T17:16:16;24.30;94.30
22108;DHT22;11220;48.812;9.128;2023-07-29T17:18:42;24.20;94.40
22108;DHT22;11220;48.812;9.128;2023-07-29T17:21:07;24.20;94.50
22108;DHT22;11220;48.812;9.128;2023-07-29T17:23:33;24.40;94.60
22108;DHT22;11220;48.812;9.128;2023-07-29T17:25:58;24.20;94.50
22108;DHT22;11220;48.812;9.128;2023-07-29T17:28:24;24.20;94.50
22108;DHT22;11220;48.812;9.128;2023-07-29T17:30:50;24.20;94.50
22108;DHT22;11220;48.812;9.128;2023-07-29T17:33:17;24.10;94.50
22108;DHT22;11220;48.812;9.128;2023-07-29T17:35:45;24.10;94.50
22108;DHT22;11220;48.812;9.128;2023-07-29T17:38:11;24.10;94.60
22108;DHT22;11220;48.812;9.128;2023-07-29T17:40:37;24.00;94.60
22108;DHT22;11220;48.812;9.128;2023-07-29T17:43:03;24.00;94.50
22108;DHT22;11220;48.812;9.128;2023-07-29T17:45:28;24.00;94.60
22108;DHT22;11220;48.812;9.128;2023-07-29T17:47:54;24.00;94.50
22108;DHT22;11220;48.812;9.128;2023-07-29T17:50:19;24.00;94.50
22108;DHT22;11220;48.812;9.128;2023-07-29T17:52:45;24.00;94.40
22108;DHT22;11220;48.812;9.128;2023-07-29T17:55:11;24.00;94.40
22108;DHT22;11220;48.812;9.128;2023-07-29T17:57:37;24.00;94.40
22108;DHT22;11220;48.812;9.128;2023-07-29T18:00:03;24.00;94.40
22108;DHT22;11220;48.812;9.128;2023-07-29T18:02:31;24.00;94.30
22108;DHT22;11220;48.812;9.128;2023-07-29T18:04:57;24.00;94.30
22108;DHT22;11220;48.812;9.128;2023-07-29T18:07:23;24.00;94.30
22108;DHT22;11220;48.812;9.128;2023-07-29T18:09:49;24.00;94.30
22108;DHT22;11220;48.812;9.128;2023-07-29T18:12:15;24.00;94.40
22108;DHT22;11220;48.812;9.128;2023-07-29T18:14:40;23.90;94.30
22108;DHT22;11220;48.812;9.128;2023-07-29T18:17:06;23.90;94.30
22108;DHT22;11220;48.812;9.128;2023-07-29T18:19:31;23.80;94.40
22108;DHT22;11220;48.812;9.128;2023-07-29T18:21:58;24.00;94.40
22108;DHT22;11220;48.812;9.128;2023-07-29T18:24:23;23.90;94.40
22108;DHT22;11220;48.812;9.128;2023-07-29T18:26:49;23.70;94.40
22108;DHT22;11220;48.812;9.128;2023-07-29T18:29:14;23.90;94.50
22108;DHT22;11220;48.812;9.128;2023-07-29T18:31:40;23.80;94.50
22108;DHT22;11220;48.812;9.128;2023-07-29T18:34:06;23.70;94.40
22108;DHT22;11220;48.812;9.128;2023-07-29T18:36:31;23.70;94.50
22108;DHT22;11220;48.812;9.128;2023-07-29T18:38:57;23.80;94.50
22108;DHT22;11220;48.812;9.128;2023-07-29T18:41:22;23.80;94.50
22108;DHT22;11220;48.812;9.128;2023-07-29T18:43:48;23.70;94.50
22108;DHT22;11220;48.812;9.128;2023-07-29T18:46:14;23.70;94.50
22108;DHT22;11220;48.812;9.128;2023-07-29T18:48:40;23.70;94.60
22108;DHT22;11220;48.812;9.128;2023-07-29T18:51:05;23.80;94.60
22108;DHT22;11220;48.812;9.128;2023-07-29T18:53:32;23.70;94.60
22108;DHT22;11220;48.812;9.128;2023-07-29T18:55:58;23.80;94.60
22108;DHT22;11220;48.812;9.128;2023-07-29T18:58:23;23.80;94.60
22108;DHT22;11220;48.812;9.128;2023-07-29T19:00:49;23.80;94.60
22108;DHT22;11220;48.812;9.128;2023-07-29T19:03:16;23.60;94.50
22108;DHT22;11220;48.812;9.128;2023-07-29T19:05:41;23.50;94.50
22108;DHT22;11220;48.812;9.128;2023-07-29T19:08:07;23.60;94.60
22108;DHT22;11220;48.812;9.128;2023-07-29T19:10:34;23.60;94.50
22108;DHT22;11220;48.812;9.128;2023-07-29T19:13:00;23.60;94.60
22108;DHT22;11220;48.812;9.128;2023-07-29T19:15:25;23.70;94.60
22108;DHT22;11220;48.812;9.128;2023-07-29T19:17:51;23.40;94.50
22108;DHT22;11220;48.812;9.128;2023-07-29T19:20:17;23.50;94.50
22108;DHT22;11220;48.812;9.128;2023-07-29T19:22:42;23.60;94.60
22108;DHT22;11220;48.812;9.128;2023-07-29T19:25:08;23.60;94.60
22108;DHT22;11220;48.812;9.128;2023-07-29T19:27:34;23.50;94.60
22108;DHT22;11220;48.812;9.128;2023-07-29T19:29:59;23.50;94.60
22108;DHT22;11220;48.812;9.128;2023-07-29T19:32:25;23.60;94.70
22108;DHT22;11220;48.812;9.128;2023-07-29T19:34:52;23.60;94.60
22108;DHT22;11220;48.812;9.128;2023-07-29T19:37:19;23.50;95.10
22108;DHT22;11220;48.812;9.128;2023-07-29T19:39:45;23.40;94.60
22108;DHT22;11220;48.812;9.128;2023-07-29T19:42:11;23.50;94.70
22108;DHT22;11220;48.812;9.128;2023-07-29T19:44:36;23.50;94.70
22108;DHT22;11220;48.812;9.128;2023-07-29T19:47:02;23.50;94.70
22108;DHT22;11220;48.812;9.128;2023-07-29T19:49:27;23.40;94.70
22108;DHT22;11220;48.812;9.128;2023-07-29T19:51:53;23.40;94.70
22108;DHT22;11220;48.812;9.128;2023-07-29T19:54:25;23.60;94.80
22108;DHT22;11220;48.812;9.128;2023-07-29T19:56:51;23.40;94.70
22108;DHT22;11220;48.812;9.128;2023-07-29T19:59:16;23.40;94.70
22108;DHT22;11220;48.812;9.128;2023-07-29T20:01:41;23.50;94.80
22108;DHT22;11220;48.812;9.128;2023-07-29T20:04:07;23.40;94.80
22108;DHT22;11220;48.812;9.128;2023-07-29T20:06:32;23.50;94.80
22108;DHT22;11220;48.812;9.128;2023-07-29T20:08:59;23.40;94.80
22108;DHT22;11220;48.812;9.128;2023-07-29T20:11:24;23.30;94.70
22108;DHT22;11220;48.812;9.128;2023-07-29T20:13:50;23.40;94.80
22108;DHT22;11220;48.812;9.128;2023-07-29T20:16:15;23.50;94.80
22108;DHT22;11220;48.812;9.128;2023-07-29T20:18:41;23.30;94.80
22108;DHT22;11220;48.812;9.128;2023-07-29T20:21:06;23.70;94.90
22108;DHT22;11220;48.812;9.128;2023-07-29T20:23:32;23.30;94.80
22108;DHT22;11220;48.812;9.128;2023-07-29T20:25:57;23.40;94.90
22108;DHT22;11220;48.812;9.128;2023-07-29T20:28:23;23.30;94.90
22108;DHT22;11220;48.812;9.128;2023-07-29T20:30:56;23.30;94.80
22108;DHT22;11220;48.812;9.128;2023-07-29T20:33:22;23.30;94.90
22108;DHT22;11220;48.812;9.128;2023-07-29T20:35:55;23.30;94.90
22108;DHT22;11220;48.812;9.128;2023-07-29T20:38:21;23.30;94.90
22108;DHT22;11220;48.812;9.128;2023-07-29T20:40:55;23.30;94.90
22108;DHT22;11220;48.812;9.128;2023-07-29T20:43:22;23.30;95.30
22108;DHT22;11220;48.812;9.128;2023-07-29T20:45:48;23.20;94.90
22108;DHT22;11220;48.812;9.128;2023-07-29T20:48:14;23.30;95.00
22108;DHT22;11220;48.812;9.128;2023-07-29T20:50:40;23.20;95.00
22108;DHT22;11220;48.812;9.128;2023-07-29T20:53:06;23.20;95.00
22108;DHT22;11220;48.812;9.128;2023-07-29T20:55:31;23.20;95.00
22108;DHT22;11220;48.812;9.128;2023-07-29T20:57:58;23.30;95.10
22108;DHT22;11220;48.812;9.128;2023-07-29T21:00:23;23.20;95.00
22108;DHT22;11220;48.812;9.128;2023-07-29T21:02:49;23.10;95.00
22108;DHT22;11220;48.812;9.128;2023-07-29T21:05:14;23.20;95.10
22108;DHT22;11220;48.812;9.128;2023-07-29T21:07:40;23.20;95.10
22108;DHT22;11220;48.812;9.128;2023-07-29T21:10:06;23.00;95.00
22108;DHT22;11220;48.812;9.128;2023-07-29T21:12:31;23.20;95.10
22108;DHT22;11220;48.812;9.128;2023-07-29T21:14:57;23.20;95.10
22108;DHT22;11220;48.812;9.128;2023-07-29T21:17:22;23.20;95.20
22108;DHT22;11220;48.812;9.128;2023-07-29T21:19:48;23.30;95.20